Time;durP1;ratioP1;P1;durP2;ratioP2;P2;SDS_P1;SDS_P2;PMS_P1;PMS_P2;Temp;Humidity;BMP_temperature;BMP_pressure;BME280_temperature;BME280_humidity;BME280_pressure;Samples;Min_cycle;Max_cycle;Signal;HPM_P1;HPM_P2
2021/06/03 00:00:43;;;;;;;4.72;2.85;;;18.90;82.90;;;;;;5091067;28;20241;-59
2021/06/03 00:03:10;;;;;;;5.68;3.35;;;18.90;82.60;;;;;;5090965;28;20204;-58
2021/06/03 00:05:39;;;;;;;3.90;2.80;;;18.90;82.20;;;;;;5090542;28;20235;-58
2021/06/03 00:08:05;;;;;;;2.75;2.47;;;18.90;81.60;;;;;;5091107;28;20273;-59
2021/06/03 00:10:34;;;;;;;3.80;2.60;;;18.90;81.50;;;;;;5090644;28;20213;-58
2021/06/03 00:13:04;;;;;;;4.10;2.50;;;18.70;81.10;;;;;;5090723;28;20281;-57
2021/06/03 00:15:30;;;;;;;2.42;2.20;;;18.70;81.30;;;;;;5090438;28;20285;-59
2021/06/03 00:17:56;;;;;;;3.17;2.50;;;18.50;81.80;;;;;;5090979;28;20215;-58
2021/06/03 00:20:26;;;;;;;3.45;2.60;;;18.40;83.20;;;;;;5090890;28;20281;-58
2021/06/03 00:22:53;;;;;;;4.10;2.70;;;18.30;84.10;;;;;;5090940;28;20298;-58
2021/06/03 00:25:20;;;;;;;3.83;2.42;;;18.20;84.70;;;;;;5090287;28;20637;-59
2021/06/03 00:27:46;;;;;;;4.50;2.72;;;18.20;84.80;;;;;;5090450;28;20255;-58
2021/06/03 00:30:15;;;;;;;3.55;2.40;;;18.20;85.00;;;;;;5090660;28;20211;-58
2021/06/03 00:32:41;;;;;;;8.07;2.70;;;18.10;85.10;;;;;;5090333;28;20212;-58
2021/06/03 00:35:09;;;;;;;2.43;2.23;;;18.10;85.40;;;;;;5091658;28;20224;-58
2021/06/03 00:37:35;;;;;;;4.97;2.40;;;18.00;85.90;;;;;;5094199;28;20607;-58
2021/06/03 00:40:02;;;;;;;5.23;2.87;;;17.90;87.20;;;;;;5093896;28;20579;-58
2021/06/03 00:42:29;;;;;;;3.87;2.53;;;17.80;88.40;;;;;;5093990;28;20693;-59
2021/06/03 00:44:55;;;;;;;3.37;2.40;;;17.70;89.30;;;;;;5093628;28;20216;-58
2021/06/03 00:47:22;;;;;;;3.27;2.37;;;17.70;90.40;;;;;;5093733;28;20684;-58
2021/06/03 00:49:49;;;;;;;3.37;2.43;;;17.60;90.30;;;;;;5094014;28;20204;-58
2021/06/03 00:52:15;;;;;;;3.63;2.27;;;17.60;90.70;;;;;;5094259;28;20209;-57
2021/06/03 00:54:41;;;;;;;4.07;2.27;;;17.50;91.10;;;;;;5093910;28;20259;-58
2021/06/03 00:57:08;;;;;;;5.57;2.47;;;17.50;91.30;;;;;;5094000;28;20201;-58
2021/06/03 00:59:34;;;;;;;4.33;2.47;;;17.40;91.10;;;;;;5093779;28;20219;-58
2021/06/03 01:02:00;;;;;;;3.37;2.67;;;17.40;91.10;;;;;;5093960;28;20204;-58
2021/06/03 01:04:28;;;;;;;3.17;2.53;;;17.30;91.50;;;;;;5093641;28;20225;-58
2021/06/03 01:06:54;;;;;;;2.60;2.40;;;17.20;91.90;;;;;;5093728;28;20211;-58
2021/06/03 01:09:27;;;;;;;2.43;2.23;;;17.10;92.60;;;;;;5093760;28;20204;-58
2021/06/03 01:12:03;;;;;;;2.90;2.40;;;17.00;92.70;;;;;;5093653;28;20249;-58
2021/06/03 01:14:34;;;;;;;3.73;2.43;;;16.90;92.70;;;;;;5093196;28;20718;-57
2021/06/03 01:17:01;;;;;;;3.30;2.40;;;17.00;93.00;;;;;;5093312;28;20613;-58
2021/06/03 01:19:33;;;;;;;2.33;2.10;;;16.90;93.60;;;;;;5093368;28;20205;-58
2021/06/03 01:22:05;;;;;;;5.73;2.70;;;16.90;94.00;;;;;;5093196;28;20215;-59
2021/06/03 01:24:34;;;;;;;7.33;2.70;;;16.80;94.20;;;;;;5092869;28;20221;-58
2021/06/03 01:27:03;;;;;;;3.70;2.70;;;16.80;94.40;;;;;;5093339;28;20215;-58
2021/06/03 01:29:39;;;;;;;4.17;2.60;;;16.80;94.70;;;;;;5093050;28;20695;-58
2021/06/03 01:32:06;;;;;;;2.73;2.53;;;16.70;95.10;;;;;;5093254;28;20211;-58
2021/06/03 01:34:33;;;;;;;3.10;2.67;;;16.60;95.30;;;;;;5092512;28;20285;-59
2021/06/03 01:36:59;;;;;;;4.03;2.67;;;16.50;95.80;;;;;;5092802;28;20679;-58
2021/06/03 01:39:26;;;;;;;2.90;2.60;;;16.50;96.00;;;;;;5093272;28;20204;-58
2021/06/03 01:41:56;;;;;;;3.37;2.70;;;16.40;96.40;;;;;;5093214;28;20208;-58
2021/06/03 01:44:23;;;;;;;2.50;2.30;;;16.40;96.60;;;;;;5092668;28;20265;-57
2021/06/03 01:46:49;;;;;;;2.93;2.63;;;16.40;96.80;;;;;;5092692;28;20249;-58
2021/06/03 01:49:17;;;;;;;4.10;2.57;;;16.30;97.00;;;;;;5092711;28;20201;-58
2021/06/03 01:51:43;;;;;;;4.47;2.30;;;16.30;97.00;;;;;;5092655;28;20590;-58
2021/06/03 01:54:10;;;;;;;2.50;2.30;;;16.20;97.20;;;;;;5092405;28;20704;-58
2021/06/03 01:56:36;;;;;;;4.13;2.30;;;16.20;97.10;;;;;;5093349;28;20204;-58
2021/06/03 01:59:04;;;;;;;2.93;2.30;;;16.20;96.70;;;;;;5092698;28;20216;-58
2021/06/03 02:01:30;;;;;;;2.83;2.23;;;16.30;96.40;;;;;;5092729;28;20205;-58
2021/06/03 02:03:57;;;;;;;2.73;2.33;;;16.30;96.20;;;;;;5092721;28;20196;-58
2021/06/03 02:06:24;;;;;;;2.90;2.57;;;16.40;96.00;;;;;;5092531;28;20586;-58
2021/06/03 02:08:50;;;;;;;3.87;2.50;;;16.40;96.10;;;;;;5092759;28;20204;-58
2021/06/03 02:11:16;;;;;;;3.17;2.17;;;16.40;96.10;;;;;;5092413;28;20211;-56
2021/06/03 02:13:46;;;;;;;2.90;2.50;;;16.30;96.30;;;;;;5092679;28;20232;-56
2021/06/03 02:16:17;;;;;;;3.80;2.40;;;16.30;96.40;;;;;;5092831;28;20558;-57
2021/06/03 02:18:48;;;;;;;3.33;2.23;;;16.30;96.60;;;;;;5092401;28;20227;-57
2021/06/03 02:21:15;;;;;;;5.23;2.60;;;16.20;96.60;;;;;;5092809;28;20212;-57
2021/06/03 02:23:42;;;;;;;2.80;2.50;;;16.20;96.60;;;;;;5092064;28;20204;-57
2021/06/03 02:26:08;;;;;;;3.27;2.30;;;16.20;96.50;;;;;;5092115;28;20607;-57
2021/06/03 02:28:35;;;;;;;4.73;2.80;;;16.20;96.60;;;;;;5091983;28;20204;-57
2021/06/03 02:31:03;;;;;;;2.97;2.30;;;16.20;96.60;;;;;;5092181;28;20212;-57
2021/06/03 02:33:31;;;;;;;2.80;2.53;;;16.10;96.80;;;;;;5091683;28;20207;-57
2021/06/03 02:35:58;;;;;;;2.60;2.37;;;16.10;96.90;;;;;;5092001;28;20273;-57
2021/06/03 02:38:26;;;;;;;3.60;2.70;;;16.10;97.20;;;;;;5092410;28;20205;-57
2021/06/03 02:40:53;;;;;;;2.67;2.47;;;16.10;97.20;;;;;;5093424;28;20219;-56
2021/06/03 02:43:20;;;;;;;3.43;2.27;;;16.10;97.30;;;;;;5091756;28;20211;-57
2021/06/03 02:45:46;;;;;;;2.77;2.43;;;16.20;97.30;;;;;;5091253;28;20217;-58
2021/06/03 02:48:14;;;;;;;4.47;2.80;;;16.20;97.30;;;;;;5091666;28;20215;-58
2021/06/03 02:50:42;;;;;;;5.53;2.33;;;16.30;97.10;;;;;;5091667;28;20204;-57
2021/06/03 02:53:08;;;;;;;3.97;2.57;;;16.50;97.00;;;;;;5091672;28;20566;-58
2021/06/03 02:55:34;;;;;;;3.73;2.50;;;16.50;97.00;;;;;;5091175;28;20238;-57
2021/06/03 02:58:01;;;;;;;3.53;2.67;;;16.50;97.00;;;;;;5090629;28;20672;-58
2021/06/03 03:00:30;;;;;;;3.93;2.50;;;16.50;97.00;;;;;;5091209;28;20729;-58
2021/06/03 03:02:56;;;;;;;3.27;2.53;;;16.60;97.10;;;;;;5091647;28;20215;-58
2021/06/03 03:05:22;;;;;;;2.90;2.50;;;16.60;97.00;;;;;;5091381;28;20217;-58
2021/06/03 03:07:50;;;;;;;3.93;2.40;;;16.60;97.00;;;;;;5091264;28;20208;-58
2021/06/03 03:10:18;;;;;;;6.73;2.67;;;16.60;96.90;;;;;;5091099;28;20215;-57
2021/06/03 03:12:45;;;;;;;4.10;2.40;;;16.60;96.90;;;;;;5091235;28;20242;-57
2021/06/03 03:15:13;;;;;;;3.30;2.43;;;16.60;97.00;;;;;;5090855;28;20775;-58
2021/06/03 03:17:40;;;;;;;3.00;2.33;;;16.60;97.00;;;;;;5091252;28;20212;-57
2021/06/03 03:20:10;;;;;;;4.20;2.23;;;16.60;96.90;;;;;;5091292;28;20237;-57
2021/06/03 03:22:37;;;;;;;2.70;2.47;;;16.60;96.80;;;;;;5091182;28;20580;-59
2021/06/03 03:25:06;;;;;;;4.60;2.53;;;16.70;96.90;;;;;;5091550;28;20224;-58
2021/06/03 03:27:32;;;;;;;2.50;2.30;;;16.80;96.60;;;;;;5091627;28;20204;-57
2021/06/03 03:29:58;;;;;;;3.80;2.40;;;16.80;96.60;;;;;;5091408;28;20211;-57
2021/06/03 03:32:24;;;;;;;3.63;2.70;;;16.90;96.60;;;;;;5091689;28;20563;-58
2021/06/03 03:34:50;;;;;;;6.00;3.00;;;16.90;96.30;;;;;;5091561;28;20231;-57
2021/06/03 03:37:17;;;;;;;6.03;3.10;;;17.00;96.20;;;;;;5091910;28;20207;-57
2021/06/03 03:39:43;;;;;;;4.20;2.60;;;17.10;96.00;;;;;;5091220;28;20596;-58
2021/06/03 03:42:10;;;;;;;3.93;2.37;;;17.00;95.90;;;;;;5091250;28;20208;-57
2021/06/03 03:44:37;;;;;;;3.37;2.40;;;17.10;96.00;;;;;;5091118;28;20261;-57
2021/06/03 03:47:03;;;;;;;3.57;2.23;;;17.10;96.00;;;;;;5091361;28;20208;-57
2021/06/03 03:49:30;;;;;;;3.97;2.33;;;17.20;96.00;;;;;;5091238;28;20200;-57
2021/06/03 03:51:56;;;;;;;2.80;2.50;;;17.20;95.80;;;;;;5091202;28;20227;-57
2021/06/03 03:54:22;;;;;;;3.93;2.40;;;17.30;95.70;;;;;;5090832;28;20228;-57
2021/06/03 03:56:48;;;;;;;7.27;2.53;;;17.40;95.60;;;;;;5090762;28;20215;-57
2021/06/03 03:59:16;;;;;;;2.97;2.60;;;17.40;95.70;;;;;;5090715;28;20672;-57
2021/06/03 04:01:42;;;;;;;5.70;2.80;;;17.50;95.70;;;;;;5091036;28;20212;-57
2021/06/03 04:04:08;;;;;;;2.80;2.47;;;17.50;95.70;;;;;;5090699;28;20200;-57
2021/06/03 04:06:38;;;;;;;2.60;2.40;;;17.50;95.70;;;;;;5090749;28;20254;-57
2021/06/03 04:09:04;;;;;;;3.80;2.43;;;17.60;95.70;;;;;;5090530;28;20212;-57
2021/06/03 04:11:30;;;;;;;3.23;2.63;;;17.60;95.60;;;;;;5094183;28;20212;-57
2021/06/03 04:13:57;;;;;;;3.47;2.70;;;17.70;95.40;;;;;;5094588;28;20231;-57
2021/06/03 04:16:24;;;;;;;5.30;2.70;;;17.70;95.30;;;;;;5094361;28;20216;-58
2021/06/03 04:18:50;;;;;;;7.17;3.00;;;17.80;95.20;;;;;;5094514;28;20747;-57
2021/06/03 04:21:17;;;;;;;4.87;2.60;;;18.00;95.10;;;;;;5094463;28;20224;-57
2021/06/03 04:23:43;;;;;;;2.80;2.50;;;18.10;94.70;;;;;;5094302;28;20261;-57
2021/06/03 04:26:09;;;;;;;2.90;2.60;;;18.30;94.40;;;;;;5095114;28;20353;-57
2021/06/03 04:28:36;;;;;;;3.15;2.40;;;18.40;94.10;;;;;;5094325;28;20204;-57
2021/06/03 04:31:02;;;;;;;3.83;2.47;;;18.50;93.90;;;;;;5094425;28;20205;-57
2021/06/03 04:33:29;;;;;;;2.60;2.40;;;18.70;93.60;;;;;;5094538;28;20607;-57
2021/06/03 04:35:56;;;;;;;4.47;2.08;;;18.80;93.30;;;;;;5093977;28;20228;-57
2021/06/03 04:38:22;;;;;;;3.92;2.50;;;19.00;92.90;;;;;;5094034;28;20227;-57
2021/06/03 04:40:48;;;;;;;6.63;2.63;;;19.10;92.80;;;;;;5094543;28;20204;-57
2021/06/03 04:43:15;;;;;;;3.17;2.53;;;19.20;92.40;;;;;;5094619;28;20207;-57
2021/06/03 04:45:42;;;;;;;4.18;2.67;;;19.40;92.10;;;;;;5094352;28;20269;-57
2021/06/03 04:48:09;;;;;;;2.65;2.33;;;19.70;91.70;;;;;;5094405;28;20247;-57
2021/06/03 04:50:38;;;;;;;4.65;2.67;;;19.80;91.30;;;;;;5094232;28;20215;-58
2021/06/03 04:53:05;;;;;;;5.15;2.85;;;20.00;90.80;;;;;;5094075;28;20672;-60
2021/06/03 04:55:31;;;;;;;3.15;2.72;;;20.20;90.70;;;;;;5094015;28;20232;-57
2021/06/03 04:57:58;;;;;;;3.42;2.15;;;20.40;90.40;;;;;;5093904;28;20208;-58
2021/06/03 05:00:26;;;;;;;2.75;2.55;;;20.50;90.10;;;;;;5093899;28;20215;-57
2021/06/03 05:02:54;;;;;;;6.40;2.42;;;20.50;90.00;;;;;;5093978;28;20265;-57
2021/06/03 05:05:20;;;;;;;3.22;2.55;;;20.50;90.00;;;;;;5093469;28;20734;-58
2021/06/03 05:07:47;;;;;;;3.17;2.20;;;20.50;90.00;;;;;;5093668;28;20207;-58
2021/06/03 05:10:15;;;;;;;6.32;2.53;;;20.60;90.00;;;;;;5093676;28;20233;-58
2021/06/03 05:12:42;;;;;;;2.78;2.33;;;20.60;89.80;;;;;;5093597;28;20209;-59
2021/06/03 05:15:10;;;;;;;8.77;3.03;;;20.70;89.90;;;;;;5093351;28;20235;-58
2021/06/03 05:17:37;;;;;;;3.00;2.53;;;20.80;89.60;;;;;;5093819;28;20204;-58
2021/06/03 05:20:05;;;;;;;4.00;2.70;;;20.80;90.10;;;;;;5093403;28;20208;-58
2021/06/03 05:22:31;;;;;;;2.95;2.40;;;20.80;90.00;;;;;;5093688;28;20211;-58
2021/06/03 05:24:59;;;;;;;4.28;2.63;;;20.90;89.70;;;;;;5093480;28;20216;-58
2021/06/03 05:27:25;;;;;;;2.58;2.38;;;21.10;89.00;;;;;;5093553;28;20215;-57
2021/06/03 05:29:51;;;;;;;4.85;3.00;;;21.20;87.70;;;;;;5093373;28;20553;-58
2021/06/03 05:32:18;;;;;;;2.95;2.53;;;21.40;87.90;;;;;;5093114;28;20208;-59
2021/06/03 05:34:44;;;;;;;4.40;2.53;;;21.60;87.00;;;;;;5092755;28;20243;-58
2021/06/03 05:37:10;;;;;;;3.80;2.58;;;21.70;86.20;;;;;;5093328;28;20583;-58
2021/06/03 05:39:36;;;;;;;4.35;2.80;;;21.90;85.80;;;;;;5093110;28;20200;-58
2021/06/03 05:42:05;;;;;;;4.43;2.40;;;22.00;85.70;;;;;;5093135;28;20719;-58
2021/06/03 05:44:31;;;;;;;5.45;2.97;;;22.10;84.90;;;;;;5092962;28;20277;-58
2021/06/03 05:46:58;;;;;;;3.65;2.60;;;22.20;85.30;;;;;;5092715;28;20204;-58
2021/06/03 05:49:26;;;;;;;5.32;2.38;;;22.40;86.30;;;;;;5092929;28;20204;-58
2021/06/03 05:51:52;;;;;;;3.17;2.47;;;22.70;87.60;;;;;;5093014;28;20236;-58
2021/06/03 05:54:19;;;;;;;3.85;2.50;;;22.90;86.50;;;;;;5092544;28;20703;-58
2021/06/03 05:56:45;;;;;;;4.60;2.65;;;23.00;84.00;;;;;;5092654;28;20223;-58
2021/06/03 05:59:12;;;;;;;3.47;2.47;;;23.10;83.90;;;;;;5092556;28;20204;-58
2021/06/03 06:01:39;;;;;;;4.22;2.50;;;23.00;83.40;;;;;;5092589;28;20204;-58
2021/06/03 06:05:56;;;;;;;4.65;2.75;;;23.00;83.10;;;;;;5092692;28;20208;-58
2021/06/03 06:07:04;;;;;;;3.97;3.13;;;23.10;82.60;;;;;;5092484;28;20307;-58
2021/06/03 06:09:30;;;;;;;6.60;3.40;;;23.20;83.30;;;;;;5092194;28;20743;-58
2021/06/03 06:11:57;;;;;;;3.47;2.70;;;23.40;85.50;;;;;;5092583;28;20225;-58
2021/06/03 06:14:24;;;;;;;4.97;2.72;;;23.70;85.80;;;;;;5092164;28;20236;-59
2021/06/03 06:16:50;;;;;;;2.80;2.50;;;24.00;85.20;;;;;;5092603;28;20209;-58
2021/06/03 06:19:17;;;;;;;3.85;2.60;;;24.30;83.70;;;;;;5092536;28;20494;-59
2021/06/03 06:21:44;;;;;;;4.78;2.80;;;24.50;83.30;;;;;;5092241;28;20208;-58
2021/06/03 06:24:10;;;;;;;3.00;2.53;;;24.60;83.00;;;;;;5092145;28;20253;-58
2021/06/03 06:26:37;;;;;;;3.45;2.78;;;24.70;82.70;;;;;;5091989;28;20664;-58
2021/06/03 06:29:03;;;;;;;4.35;2.90;;;25.00;82.20;;;;;;5092315;28;20200;-58
2021/06/03 06:31:30;;;;;;;2.85;2.33;;;25.30;81.50;;;;;;5091921;28;20208;-58
2021/06/03 06:33:57;;;;;;;5.53;2.80;;;25.80;80.60;;;;;;5090826;28;20204;-58
2021/06/03 06:36:24;;;;;;;3.97;2.50;;;26.70;78.20;;;;;;5091837;28;20234;-58
2021/06/03 06:38:50;;;;;;;5.47;2.65;;;27.80;75.20;;;;;;5091579;28;20239;-59
2021/06/03 06:41:17;;;;;;;3.83;2.50;;;28.70;72.30;;;;;;5091634;28;20205;-58
2021/06/03 06:43:43;;;;;;;4.70;2.63;;;29.50;70.20;;;;;;5091950;28;20203;-58
2021/06/03 06:46:09;;;;;;;2.78;2.58;;;30.10;66.20;;;;;;5091784;28;20231;-58
2021/06/03 06:48:37;;;;;;;3.65;2.58;;;30.40;63.00;;;;;;5091473;28;20627;-58
2021/06/03 06:51:04;;;;;;;3.70;2.55;;;30.40;61.90;;;;;;5091882;28;20648;-58
2021/06/03 06:53:30;;;;;;;3.50;2.20;;;30.30;61.60;;;;;;5091775;28;20208;-58
2021/06/03 06:55:57;;;;;;;4.43;2.55;;;30.20;61.00;;;;;;5091691;28;20228;-58
2021/06/03 06:58:23;;;;;;;4.47;3.00;;;30.40;60.70;;;;;;5091334;28;20233;-58
2021/06/03 07:00:49;;;;;;;7.25;3.65;;;30.70;59.60;;;;;;5091851;28;20203;-59
2021/06/03 07:03:16;;;;;;;2.92;2.30;;;31.10;58.50;;;;;;5091645;28;20247;-60
2021/06/03 07:05:46;;;;;;;2.75;2.50;;;31.90;56.40;;;;;;5091679;28;20220;-59
2021/06/03 07:08:12;;;;;;;4.90;2.60;;;32.30;55.50;;;;;;5091500;28;20591;-59
2021/06/03 07:10:38;;;;;;;5.72;2.83;;;32.80;54.40;;;;;;5091118;28;20208;-60
2021/06/03 07:13:05;;;;;;;6.50;3.00;;;34.20;51.70;;;;;;5092122;28;20303;-68
2021/06/03 07:15:31;;;;;;;6.72;3.03;;;35.20;49.50;;;;;;5091807;28;20228;-65
2021/06/03 07:17:57;;;;;;;3.22;2.28;;;35.40;48.60;;;;;;5091403;28;20254;-59
2021/06/03 07:20:24;;;;;;;3.50;2.10;;;35.50;48.30;;;;;;5091481;28;20242;-59
2021/06/03 07:22:53;;;;;;;3.13;2.00;;;36.00;47.30;;;;;;5091173;28;20204;-59
2021/06/03 07:25:22;;;;;;;2.42;2.22;;;37.10;45.90;;;;;;5091222;28;20235;-59
2021/06/03 07:27:49;;;;;;;3.25;2.20;;;37.10;44.80;;;;;;5091223;28;20204;-59
2021/06/03 07:30:18;;;;;;;2.75;2.00;;;35.50;47.30;;;;;;5090925;28;20204;-59
2021/06/03 07:32:44;;;;;;;2.67;2.30;;;33.80;50.00;;;;;;5091195;28;20215;-59
2021/06/03 07:35:13;;;;;;;4.35;3.70;;;33.20;51.00;;;;;;5091042;28;20235;-59
2021/06/03 07:37:40;;;;;;;3.72;2.10;;;33.20;51.30;;;;;;5090912;28;20226;-59
2021/06/03 07:40:11;;;;;;;3.97;2.22;;;32.80;51.60;;;;;;5091641;28;20208;-59
2021/06/03 07:42:37;;;;;;;2.65;2.40;;;32.20;53.10;;;;;;5091770;28;20204;-58
2021/06/03 07:45:06;;;;;;;3.58;2.78;;;31.70;54.10;;;;;;5094526;28;20238;-58
2021/06/03 07:47:32;;;;;;;5.05;3.47;;;31.50;54.60;;;;;;5095919;28;20204;-58
2021/06/03 07:49:58;;;;;;;3.10;2.47;;;31.20;54.40;;;;;;5095296;28;20233;-58
2021/06/03 07:52:25;;;;;;;4.38;3.08;;;31.00;55.10;;;;;;5095367;28;20219;-58
2021/06/03 07:54:51;;;;;;;3.30;2.10;;;30.70;55.60;;;;;;5095139;28;20223;-58
2021/06/03 07:57:18;;;;;;;3.88;2.50;;;30.50;56.50;;;;;;5095839;28;20208;-58
2021/06/03 07:59:45;;;;;;;3.17;2.40;;;30.10;57.30;;;;;;5095175;28;20649;-58
2021/06/03 08:02:11;;;;;;;3.83;2.72;;;29.80;58.20;;;;;;5095103;28;20211;-58
2021/06/03 08:04:37;;;;;;;5.05;2.90;;;29.50;58.90;;;;;;5094534;28;20216;-58
2021/06/03 08:07:04;;;;;;;3.90;2.78;;;29.30;59.80;;;;;;5095078;28;20208;-60
2021/06/03 08:09:30;;;;;;;4.78;2.58;;;29.20;60.50;;;;;;5094715;28;20299;-57
2021/06/03 08:11:58;;;;;;;4.45;3.55;;;29.00;60.90;;;;;;5094729;28;20226;-61
2021/06/03 08:14:25;;;;;;;9.98;7.30;;;28.80;61.90;;;;;;5094411;28;20308;-58
2021/06/03 08:16:51;;;;;;;6.68;3.60;;;28.40;63.20;;;;;;5094762;28;20578;-58
2021/06/03 08:19:20;;;;;;;8.52;5.28;;;28.00;64.10;;;;;;5094683;28;20215;-58
2021/06/03 08:21:46;;;;;;;4.47;2.55;;;27.60;65.10;;;;;;5094818;28;20303;-62
2021/06/03 08:24:12;;;;;;;3.33;2.63;;;27.50;65.90;;;;;;5094887;28;20220;-60
2021/06/03 08:26:40;;;;;;;3.80;3.15;;;27.40;66.10;;;;;;5094916;28;20207;-60
2021/06/03 08:29:06;;;;;;;4.15;2.90;;;27.30;66.50;;;;;;5094375;28;20249;-60
2021/06/03 08:31:34;;;;;;;2.88;2.55;;;27.40;67.50;;;;;;5094769;28;20204;-60
2021/06/03 08:34:03;;;;;;;4.72;3.53;;;27.30;67.70;;;;;;5094740;28;20204;-60
2021/06/03 08:36:29;;;;;;;3.63;2.35;;;27.30;67.90;;;;;;5094719;28;20282;-60
2021/06/03 08:38:55;;;;;;;3.53;2.17;;;27.30;68.20;;;;;;5094697;28;20223;-61
2021/06/03 08:41:22;;;;;;;3.15;2.10;;;27.40;67.50;;;;;;5094490;28;20673;-60
2021/06/03 08:43:48;;;;;;;4.07;2.50;;;27.40;67.40;;;;;;5094486;28;20209;-61
2021/06/03 08:46:15;;;;;;;4.20;2.22;;;27.50;67.30;;;;;;5094078;28;20220;-61
2021/06/03 08:48:42;;;;;;;3.28;2.53;;;27.50;67.30;;;;;;5094258;28;20200;-60
2021/06/03 08:51:08;;;;;;;3.28;2.28;;;27.60;67.40;;;;;;5094419;28;20204;-61
2021/06/03 08:53:35;;;;;;;3.28;2.15;;;27.60;67.40;;;;;;5094017;28;20212;-60
2021/06/03 08:56:15;;;;;;;4.15;2.13;;;27.60;67.30;;;;;;5093184;28;20224;-60
2021/06/03 08:58:42;;;;;;;5.95;2.20;;;27.60;68.00;;;;;;5093861;28;20663;-60
2021/06/03 09:01:08;;;;;;;4.43;2.42;;;27.50;67.60;;;;;;5094246;28;20211;-61
2021/06/03 09:03:35;;;;;;;3.85;2.30;;;27.50;67.90;;;;;;5094162;28;20205;-60
2021/06/03 09:06:03;;;;;;;3.20;2.10;;;27.30;68.80;;;;;;5093908;28;20216;-61
2021/06/03 09:08:31;;;;;;;4.07;2.40;;;27.50;68.80;;;;;;5093808;28;20208;-61
2021/06/03 09:11:00;;;;;;;2.63;2.08;;;27.60;69.30;;;;;;5093673;28;20222;-60
2021/06/03 09:13:30;;;;;;;2.92;2.13;;;27.80;67.60;;;;;;5093235;28;20200;-60
2021/06/03 09:15:59;;;;;;;2.58;2.25;;;28.10;67.30;;;;;;5093661;28;20229;-60
2021/06/03 09:18:30;;;;;;;6.38;2.38;;;28.30;67.00;;;;;;5093762;28;20215;-60
2021/06/03 09:21:06;;;;;;;2.22;2.03;;;28.60;65.40;;;;;;5093705;28;20216;-60
2021/06/03 09:23:34;;;;;;;2.72;1.98;;;28.80;64.30;;;;;;5094083;28;20231;-61
2021/06/03 09:26:06;;;;;;;2.50;2.00;;;29.10;63.30;;;;;;5093547;28;20224;-61
2021/06/03 09:28:34;;;;;;;3.25;2.10;;;29.20;63.30;;;;;;5093503;28;20208;-61
2021/06/03 09:31:10;;;;;;;3.55;2.20;;;29.40;63.40;;;;;;5093469;28;20212;-60
2021/06/03 09:33:57;;;;;;;1.77;1.60;;;29.40;63.60;;;;;;5093604;28;20227;-60
2021/06/03 09:36:30;;;;;;;2.28;2.00;;;29.30;63.20;;;;;;5093295;28;20219;-60
2021/06/03 09:39:06;;;;;;;3.55;2.17;;;29.10;64.20;;;;;;5093278;28;20668;-60
2021/06/03 09:41:33;;;;;;;2.33;1.80;;;28.80;65.10;;;;;;5090528;28;20199;-58
2021/06/03 09:44:09;;;;;;;3.80;1.95;;;28.60;65.10;;;;;;5092531;28;20204;-60
2021/06/03 09:46:38;;;;;;;4.43;2.00;;;28.60;65.50;;;;;;5092582;28;20211;-61
2021/06/03 09:49:05;;;;;;;3.67;2.08;;;28.40;66.50;;;;;;5092680;28;20215;-63
2021/06/03 09:51:36;;;;;;;5.55;2.30;;;28.30;66.80;;;;;;5092703;28;20209;-63
2021/06/03 09:54:06;;;;;;;2.70;1.75;;;28.40;66.80;;;;;;5092539;28;20295;-64
2021/06/03 09:56:34;;;;;;;2.55;1.98;;;28.50;66.20;;;;;;5092917;28;20220;-64
2021/06/03 09:59:02;;;;;;;5.53;2.38;;;28.90;65.20;;;;;;5091995;28;20204;-62
2021/06/03 10:01:50;;;;;;;2.55;1.70;;;29.20;64.80;;;;;;5092678;28;20208;-63
2021/06/03 10:04:18;;;;;;;2.30;2.10;;;29.50;64.20;;;;;;5092353;28;20228;-65
2021/06/03 10:07:06;;;;;;;2.80;1.90;;;29.30;64.00;;;;;;5092607;28;20204;-63
2021/06/03 10:09:40;;;;;;;4.70;1.83;;;28.90;64.80;;;;;;5091979;28;20215;-63
2021/06/03 10:12:09;;;;;;;3.40;2.08;;;28.50;65.40;;;;;;5092692;28;20204;-63
2021/06/03 10:14:37;;;;;;;3.30;2.00;;;28.30;66.00;;;;;;5092074;28;20219;-63
2021/06/03 10:17:15;;;;;;;3.97;2.05;;;28.00;66.90;;;;;;5092767;28;20209;-65
2021/06/03 10:19:41;;;;;;;4.22;1.63;;;27.70;68.10;;;;;;5091414;28;20200;-61
2021/06/03 10:22:14;;;;;;;1.90;1.70;;;27.60;67.90;;;;;;5092374;28;20204;-63
2021/06/03 10:24:54;;;;;;;4.03;1.70;;;27.50;69.10;;;;;;5091845;28;20234;-63
2021/06/03 10:27:22;;;;;;;3.55;1.85;;;27.50;69.60;;;;;;5092116;28;20256;-63
2021/06/03 10:29:50;;;;;;;2.58;1.65;;;27.50;69.60;;;;;;5092216;28;20204;-65
2021/06/03 10:32:17;;;;;;;3.10;2.00;;;27.40;69.40;;;;;;5092142;28;20200;-64
2021/06/03 10:34:44;;;;;;;3.10;1.85;;;27.50;68.10;;;;;;5091382;28;20224;-65
2021/06/03 10:37:12;;;;;;;4.57;2.17;;;27.60;67.90;;;;;;5092189;28;20212;-66
2021/06/03 10:39:40;;;;;;;2.22;1.77;;;27.70;67.90;;;;;;5092070;28;20200;-63
2021/06/03 10:42:11;;;;;;;2.00;1.80;;;27.80;67.70;;;;;;5091798;28;20208;-64
2021/06/03 10:44:38;;;;;;;2.97;1.50;;;27.70;67.90;;;;;;5091563;28;20229;-63
2021/06/03 10:47:06;;;;;;;3.15;1.60;;;27.60;67.90;;;;;;5092523;28;20230;-63
2021/06/03 10:49:33;;;;;;;2.25;1.90;;;27.60;67.80;;;;;;5092554;28;20208;-62
2021/06/03 10:52:06;;;;;;;3.97;1.83;;;28.00;67.20;;;;;;5092085;28;20208;-61
2021/06/03 10:54:54;;;;;;;5.43;2.30;;;28.30;65.80;;;;;;5092536;28;20251;-64
2021/06/03 10:57:24;;;;;;;2.78;1.70;;;28.50;64.70;;;;;;5087187;28;20211;-66
2021/06/03 10:59:51;;;;;;;2.83;1.90;;;28.60;63.80;;;;;;5092620;28;20235;-65
2021/06/03 11:02:18;;;;;;;3.88;1.63;;;28.70;63.50;;;;;;5093729;28;20231;-65
2021/06/03 11:04:46;;;;;;;1.80;1.50;;;28.90;63.60;;;;;;5091468;28;20474;-60
2021/06/03 11:07:13;;;;;;;3.92;1.77;;;29.10;62.70;;;;;;5091918;28;20254;-59
2021/06/03 11:09:42;;;;;;;2.78;1.65;;;29.20;61.80;;;;;;5091141;28;20713;-59
2021/06/03 11:12:12;;;;;;;5.32;1.83;;;29.30;61.20;;;;;;5091597;28;20208;-60
2021/06/03 11:15:04;;;;;;;6.82;1.98;;;29.40;60.80;;;;;;5091327;28;20224;-58
2021/06/03 11:17:50;;;;;;;3.50;1.42;;;29.50;61.40;;;;;;5091543;28;20203;-60
2021/06/03 11:20:17;;;;;;;2.42;1.67;;;29.70;60.50;;;;;;5090903;28;20217;-61
2021/06/03 11:22:43;;;;;;;2.72;1.75;;;29.80;60.20;;;;;;5091383;28;20736;-59
2021/06/03 11:25:30;;;;;;;1.80;1.60;;;29.60;60.00;;;;;;5091186;28;20246;-61
2021/06/03 11:27:56;;;;;;;3.42;1.67;;;29.50;59.50;;;;;;5091514;28;20204;-60
2021/06/03 11:30:32;;;;;;;2.30;1.95;;;29.60;59.20;;;;;;5091765;28;20208;-61
2021/06/03 11:32:58;;;;;;;3.13;1.70;;;29.90;58.40;;;;;;5091593;28;20215;-61
2021/06/03 11:35:29;;;;;;;2.28;1.38;;;30.00;57.70;;;;;;5091288;28;20240;-60
2021/06/03 11:37:55;;;;;;;4.13;1.70;;;30.00;57.80;;;;;;5091918;28;20253;-60
2021/06/03 11:40:24;;;;;;;2.53;1.70;;;30.00;58.00;;;;;;5091617;28;20664;-61
2021/06/03 11:43:05;;;;;;;2.78;1.50;;;30.10;57.30;;;;;;5091593;28;20204;-60
2021/06/03 11:45:35;;;;;;;2.78;1.65;;;30.10;57.10;;;;;;5091900;28;20248;-61
2021/06/03 11:48:08;;;;;;;3.55;1.50;;;30.10;57.00;;;;;;5091925;28;20204;-62
2021/06/03 11:50:36;;;;;;;2.00;1.60;;;30.20;56.30;;;;;;5091819;28;20204;-61
2021/06/03 11:53:08;;;;;;;2.92;1.90;;;30.20;56.90;;;;;;5091719;28;20204;-61
2021/06/03 11:55:37;;;;;;;3.05;1.40;;;30.30;57.10;;;;;;5090808;28;20651;-60
2021/06/03 11:58:18;;;;;;;4.32;1.70;;;30.30;56.80;;;;;;5091392;28;20211;-60
2021/06/03 12:00:48;;;;;;;2.53;1.80;;;30.40;56.30;;;;;;5091602;28;20269;-61
2021/06/03 12:03:32;;;;;;;4.43;1.75;;;30.70;56.60;;;;;;5091135;28;20290;-60
2021/06/03 12:06:00;;;;;;;2.70;1.45;;;30.80;56.10;;;;;;5091481;28;20307;-60
2021/06/03 12:08:43;;;;;;;3.70;1.70;;;31.00;54.70;;;;;;5090484;28;20211;-59
2021/06/03 12:11:12;;;;;;;3.38;1.90;;;31.10;54.50;;;;;;5090953;28;20235;-61
2021/06/03 12:13:39;;;;;;;3.95;2.00;;;31.40;54.30;;;;;;5090955;28;20208;-62
2021/06/03 12:16:07;;;;;;;2.83;1.55;;;31.50;54.10;;;;;;5090371;28;20239;-60
2021/06/03 12:18:35;;;;;;;2.60;1.70;;;31.60;53.50;;;;;;5090159;28;20200;-60
2021/06/03 12:21:02;;;;;;;5.13;2.50;;;31.50;53.30;;;;;;5090505;28;20204;-61
2021/06/03 12:23:29;;;;;;;4.15;1.90;;;31.40;53.70;;;;;;5090226;28;20254;-61
2021/06/03 12:25:55;;;;;;;8.05;2.80;;;31.30;54.80;;;;;;5090414;28;20247;-61
2021/06/03 12:28:21;;;;;;;3.67;1.80;;;31.10;55.50;;;;;;5090425;28;20254;-61
2021/06/03 12:30:47;;;;;;;3.83;1.92;;;30.70;56.60;;;;;;5091608;28;20231;-60
2021/06/03 12:33:23;;;;;;;6.20;2.03;;;30.30;60.60;;;;;;5094210;28;20816;-60
2021/06/03 12:35:51;;;;;;;6.00;2.60;;;30.10;61.90;;;;;;5094058;28;20228;-60
2021/06/03 12:38:29;;;;;;;3.17;2.33;;;30.10;62.60;;;;;;5093966;28;20205;-62
2021/06/03 12:40:56;;;;;;;2.22;1.90;;;30.00;63.00;;;;;;5094284;28;20620;-60
2021/06/03 12:43:22;;;;;;;4.47;2.85;;;30.00;63.40;;;;;;5093917;28;20211;-59
2021/06/03 12:45:48;;;;;;;3.60;2.03;;;30.00;62.90;;;;;;5093432;28;20773;-59
2021/06/03 12:48:17;;;;;;;3.42;1.90;;;29.90;62.90;;;;;;5093862;28;20602;-60
2021/06/03 12:50:45;;;;;;;3.20;2.03;;;30.00;63.40;;;;;;5094063;28;20200;-60
2021/06/03 12:53:13;;;;;;;2.90;1.98;;;30.00;63.80;;;;;;5093886;28;20200;-60